Northsea Beta — 9HA2594 — position and weather

sailwx.info

Track history (hours):
 
Tides and Currents Weather Stations Pressure Air Temp Water Temp Dewpoint Dewpoint Depression Visibility Wind Speed Wind Dir Waves Ship Positions

Northsea Beta

Last reported at 2015-Jul-29 23:05 UTC. Time now 2015-Aug-02 04:19 UTC.
Position N 40°43' E 001°49'.

Length 110 m; draft 7.5 m.

Type: Tanker. MMSI: 248970000.

Date/timePositionNaut miles runAvg speedWind from/ knotsBaromVisibWave heightAir tempDewpointWater temp
2015-Jul-29 23:05N 40°43' E 001°49'2012.4
2015-Jul-29 21:30N 40°56' E 002°08'13412.0
2015-Jul-29 10:19N 42°28' E 004°18'911.7
2015-Jul-29 09:32N 42°36' E 004°25'1212.3
2015-Jul-29 08:33N 42°46' E 004°35'1212.0
2015-Jul-29 07:33N 42°55' E 004°45'1211.9
2015-Jul-29 06:34N 43°04' E 004°55'1110.9
2015-Jul-29 05:33N 43°14' E 005°00'1110.7
2015-Jul-29 04:33N 43°24' E 004°54'1 1.1
2015-Jul-29 03:29N 43°25' E 004°53'0 0.0
2015-Jul-29 02:32N 43°25' E 004°53'0 0.0
2015-Jul-29 01:29N 43°25' E 004°53'0 0.0
2015-Jul-29 00:32N 43°25' E 004°53'0 0.0
2015-Jul-28 23:32N 43°25' E 004°53'0 0.0
2015-Jul-28 22:29N 43°25' E 004°53'0 0.0
2015-Jul-28 21:32N 43°25' E 004°53'0 0.0
2015-Jul-28 20:32N 43°25' E 004°53'0 0.0
2015-Jul-28 19:32N 43°25' E 004°53'0 0.0
2015-Jul-28 18:32N 43°25' E 004°53'0 0.0
2015-Jul-28 17:32N 43°25' E 004°53'0 0.0
2015-Jul-28 16:32N 43°25' E 004°53'0 0.0
2015-Jul-28 15:32N 43°25' E 004°53'0 0.0
2015-Jul-28 14:32N 43°25' E 004°53'0 0.0
2015-Jul-28 13:32N 43°25' E 004°53'0 0.0
2015-Jul-28 12:32N 43°25' E 004°53'0 0.0
2015-Jul-28 11:29N 43°25' E 004°53'0 0.0
2015-Jul-28 10:32N 43°25' E 004°53'0 0.0
2015-Jul-28 09:32N 43°25' E 004°53'0 0.0
2015-Jul-28 08:32N 43°25' E 004°53'0 0.0
2015-Jul-28 07:32N 43°25' E 004°53'0 0.0
2015-Jul-28 06:32N 43°25' E 004°53'0 0.0
2015-Jul-28 05:32N 43°25' E 004°53'0 0.0
2015-Jul-28 04:32N 43°25' E 004°53'0 0.1
2015-Jul-28 03:33N 43°25' E 004°53'2 1.5
2015-Jul-28 02:29N 43°25' E 004°55'0 0.0
2015-Jul-28 01:32N 43°25' E 004°55'0 0.0
2015-Jul-28 00:32N 43°25' E 004°55'0 0.0
2015-Jul-27 23:32N 43°25' E 004°55'0 0.0
2015-Jul-27 22:32N 43°25' E 004°55'0 0.0
2015-Jul-27 21:32N 43°25' E 004°55'0 0.0
2015-Jul-27 20:32N 43°25' E 004°55'0 0.0
2015-Jul-27 19:32N 43°25' E 004°55'0 0.0
2015-Jul-27 18:32N 43°25' E 004°55'0 0.0
2015-Jul-27 17:32N 43°25' E 004°55'0 0.0
2015-Jul-27 16:32N 43°25' E 004°55'0 0.0
2015-Jul-27 15:32N 43°25' E 004°55'0 0.0
2015-Jul-27 14:32N 43°25' E 004°55'0 0.0
2015-Jul-27 13:32N 43°25' E 004°55'0 0.0
2015-Jul-27 12:32N 43°25' E 004°55'0 0.0
2015-Jul-27 11:32N 43°25' E 004°55'0 0.1
2015-Jul-27 10:32N 43°25' E 004°55'0 0.0
2015-Jul-27 09:32N 43°25' E 004°55'0 0.0
2015-Jul-27 08:32N 43°25' E 004°55'0 0.0
2015-Jul-27 07:32N 43°25' E 004°55'1 1.5
2015-Jul-27 06:32N 43°25' E 004°53'0 0.0
2015-Jul-27 05:32N 43°25' E 004°53'0 0.0
2015-Jul-27 04:20N 43°25' E 004°53'0 0.0
2015-Jul-27 03:32N 43°25' E 004°53'0 0.0
2015-Jul-27 02:32N 43°25' E 004°53'5 4.7
2015-Jul-27 01:34N 43°22' E 004°58'1010.4
2015-Jul-27 00:33N 43°12' E 005°03'1111.2
2015-Jul-26 23:33N 43°01' E 004°59'1211.6
2015-Jul-26 22:33N 42°52' E 004°49'1211.9
2015-Jul-26 21:33N 42°43' E 004°39'1211.9
2015-Jul-26 20:32N 42°34' E 004°29'1212.3
2015-Jul-26 19:33N 42°24' E 004°19'11 8.6
2015-Jul-26 18:14N 42°15' E 004°09'1 1.5
2015-Jul-26 17:33N 42°14' E 004°08'10810.8
2015-Jul-26 07:33N 40°49' E 002°39'1211.7
2015-Jul-26 06:33N 40°40' E 002°29'1312.2
2015-Jul-26 05:30N 40°30' E 002°19'1212.3
2015-Jul-26 04:33N 40°21' E 002°09'1411.9
2015-Jul-26 03:25N 40°10' E 001°58'2311.9
2015-Jul-26 01:29N 39°52' E 001°40'15811.8
2015-Jul-25 12:04N 37°45' W 000°20'611.3
2015-Jul-25 11:30N 37°40' W 000°25'1010.9
2015-Jul-25 10:33N 37°32' W 000°33'1111.0
2015-Jul-25 09:31N 37°24' W 000°43'3711.4
2015-Jul-25 06:17N 36°60' W 001°18'1111.3
2015-Jul-25 05:22N 36°53' W 001°28'911.3
2015-Jul-25 04:33N 36°47' W 001°36'1111.2
2015-Jul-25 03:32N 36°39' W 001°47'2611.3
2015-Jul-25 01:16N 36°22' W 002°11'2111.7
2015-Jul-24 23:29N 36°19' W 002°36'29112.4
2015-Jul-24 00:05N 36°20' W 008°37'612.1
2015-Jul-23 23:33N 36°22' W 008°45'1212.3
2015-Jul-23 22:34N 36°25' W 008°60'1612.1
2015-Jul-23 21:16N 36°30' W 009°18'811.8
2015-Jul-23 20:34N 36°35' W 009°27'1212.1
2015-Jul-23 19:33N 36°43' W 009°38'1212.1
2015-Jul-23 18:34N 36°50' W 009°50'1212.0
2015-Jul-23 17:33N 36°58' W 010°01'1111.2
2015-Jul-23 16:34N 37°08' W 010°09'1212.3
2015-Jul-23 15:33N 37°20' W 010°07'1212.0
2015-Jul-23 14:33N 37°32' W 010°06'1312.5
2015-Jul-23 13:33N 37°44' W 010°04'1312.9
2015-Jul-23 12:34N 37°57' W 010°03'1312.6
2015-Jul-23 11:33N 38°10' W 010°02'1312.6
2015-Jul-23 10:33N 38°22' W 010°06'1312.6
2015-Jul-23 09:33N 38°34' W 010°10'1212.5
2015-Jul-23 08:33N 38°47' W 010°12'1312.6
2015-Jul-23 07:33N 38°59' W 010°09'1212.2
2015-Jul-23 06:33N 39°11' W 010°05'1312.9
2015-Jul-23 05:31N 39°24' W 009°60'1313.0
2015-Jul-23 04:33N 39°36' W 009°55'  
2015-Jul-20 02:33N 39°06' W 009°55'1212.2
2015-Jul-20 01:33N 38°54' W 009°57'1212.3
2015-Jul-20 00:33N 38°41' W 009°56'  
Track history (hours):
 
Tides and Currents Weather Stations Pressure Air Temp Water Temp Dewpoint Dewpoint Depression Visibility Wind Speed Wind Dir Waves Ship Positions

Northsea Beta

Last reported at 2015-Jul-29 23:05 UTC. Time now 2015-Aug-02 04:19 UTC.
Position N 40°43' E 001°49'.

Length 110 m; draft 7.5 m.

Type: Tanker. MMSI: 248970000.

Date/timePositionNaut miles runAvg speedWind from/ knotsBaromVisibWave heightAir tempDewpointWater temp
2015-Jul-29 23:05N 40°43' E 001°49'2012.4
2015-Jul-29 21:30N 40°56' E 002°08'13412.0
2015-Jul-29 10:19N 42°28' E 004°18'911.7
2015-Jul-29 09:32N 42°36' E 004°25'1212.3
2015-Jul-29 08:33N 42°46' E 004°35'1212.0
2015-Jul-29 07:33N 42°55' E 004°45'1211.9
2015-Jul-29 06:34N 43°04' E 004°55'1110.9
2015-Jul-29 05:33N 43°14' E 005°00'1110.7
2015-Jul-29 04:33N 43°24' E 004°54'1 1.1
2015-Jul-29 03:29N 43°25' E 004°53'0 0.0
2015-Jul-29 02:32N 43°25' E 004°53'0 0.0
2015-Jul-29 01:29N 43°25' E 004°53'0 0.0
2015-Jul-29 00:32N 43°25' E 004°53'0 0.0
2015-Jul-28 23:32N 43°25' E 004°53'0 0.0
2015-Jul-28 22:29N 43°25' E 004°53'0 0.0
2015-Jul-28 21:32N 43°25' E 004°53'0 0.0
2015-Jul-28 20:32N 43°25' E 004°53'0 0.0
2015-Jul-28 19:32N 43°25' E 004°53'0 0.0
2015-Jul-28 18:32N 43°25' E 004°53'0 0.0
2015-Jul-28 17:32N 43°25' E 004°53'0 0.0
2015-Jul-28 16:32N 43°25' E 004°53'0 0.0
2015-Jul-28 15:32N 43°25' E 004°53'0 0.0
2015-Jul-28 14:32N 43°25' E 004°53'0 0.0
2015-Jul-28 13:32N 43°25' E 004°53'0 0.0
2015-Jul-28 12:32N 43°25' E 004°53'0 0.0
2015-Jul-28 11:29N 43°25' E 004°53'0 0.0
2015-Jul-28 10:32N 43°25' E 004°53'0 0.0
2015-Jul-28 09:32N 43°25' E 004°53'0 0.0
2015-Jul-28 08:32N 43°25' E 004°53'0 0.0
2015-Jul-28 07:32N 43°25' E 004°53'0 0.0
2015-Jul-28 06:32N 43°25' E 004°53'0 0.0
2015-Jul-28 05:32N 43°25' E 004°53'0 0.0
2015-Jul-28 04:32N 43°25' E 004°53'0 0.1
2015-Jul-28 03:33N 43°25' E 004°53'2 1.5
2015-Jul-28 02:29N 43°25' E 004°55'0 0.0
2015-Jul-28 01:32N 43°25' E 004°55'0 0.0
2015-Jul-28 00:32N 43°25' E 004°55'0 0.0
2015-Jul-27 23:32N 43°25' E 004°55'0 0.0
2015-Jul-27 22:32N 43°25' E 004°55'0 0.0
2015-Jul-27 21:32N 43°25' E 004°55'0 0.0
2015-Jul-27 20:32N 43°25' E 004°55'0 0.0
2015-Jul-27 19:32N 43°25' E 004°55'0 0.0
2015-Jul-27 18:32N 43°25' E 004°55'0 0.0
2015-Jul-27 17:32N 43°25' E 004°55'0 0.0
2015-Jul-27 16:32N 43°25' E 004°55'0 0.0
2015-Jul-27 15:32N 43°25' E 004°55'0 0.0
2015-Jul-27 14:32N 43°25' E 004°55'0 0.0
2015-Jul-27 13:32N 43°25' E 004°55'0 0.0
2015-Jul-27 12:32N 43°25' E 004°55'0 0.0
2015-Jul-27 11:32N 43°25' E 004°55'0 0.1
2015-Jul-27 10:32N 43°25' E 004°55'0 0.0
2015-Jul-27 09:32N 43°25' E 004°55'0 0.0
2015-Jul-27 08:32N 43°25' E 004°55'0 0.0
2015-Jul-27 07:32N 43°25' E 004°55'1 1.5
2015-Jul-27 06:32N 43°25' E 004°53'0 0.0
2015-Jul-27 05:32N 43°25' E 004°53'0 0.0
2015-Jul-27 04:20N 43°25' E 004°53'0 0.0
2015-Jul-27 03:32N 43°25' E 004°53'0 0.0
2015-Jul-27 02:32N 43°25' E 004°53'5 4.7
2015-Jul-27 01:34N 43°22' E 004°58'1010.4
2015-Jul-27 00:33N 43°12' E 005°03'1111.2
2015-Jul-26 23:33N 43°01' E 004°59'1211.6
2015-Jul-26 22:33N 42°52' E 004°49'1211.9
2015-Jul-26 21:33N 42°43' E 004°39'1211.9
2015-Jul-26 20:32N 42°34' E 004°29'1212.3
2015-Jul-26 19:33N 42°24' E 004°19'11 8.6
2015-Jul-26 18:14N 42°15' E 004°09'1 1.5
2015-Jul-26 17:33N 42°14' E 004°08'10810.8
2015-Jul-26 07:33N 40°49' E 002°39'1211.7
2015-Jul-26 06:33N 40°40' E 002°29'1312.2
2015-Jul-26 05:30N 40°30' E 002°19'1212.3
2015-Jul-26 04:33N 40°21' E 002°09'1411.9
2015-Jul-26 03:25N 40°10' E 001°58'2311.9
2015-Jul-26 01:29N 39°52' E 001°40'15811.8
2015-Jul-25 12:04N 37°45' W 000°20'611.3
2015-Jul-25 11:30N 37°40' W 000°25'1010.9
2015-Jul-25 10:33N 37°32' W 000°33'1111.0
2015-Jul-25 09:31N 37°24' W 000°43'3711.4
2015-Jul-25 06:17N 36°60' W 001°18'1111.3
2015-Jul-25 05:22N 36°53' W 001°28'911.3
2015-Jul-25 04:33N 36°47' W 001°36'1111.2
2015-Jul-25 03:32N 36°39' W 001°47'2611.3
2015-Jul-25 01:16N 36°22' W 002°11'2111.7
2015-Jul-24 23:29N 36°19' W 002°36'29112.4
2015-Jul-24 00:05N 36°20' W 008°37'612.1
2015-Jul-23 23:33N 36°22' W 008°45'1212.3
2015-Jul-23 22:34N 36°25' W 008°60'1612.1
2015-Jul-23 21:16N 36°30' W 009°18'811.8
2015-Jul-23 20:34N 36°35' W 009°27'1212.1
2015-Jul-23 19:33N 36°43' W 009°38'1212.1
2015-Jul-23 18:34N 36°50' W 009°50'1212.0
2015-Jul-23 17:33N 36°58' W 010°01'1111.2
2015-Jul-23 16:34N 37°08' W 010°09'1212.3
2015-Jul-23 15:33N 37°20' W 010°07'1212.0
2015-Jul-23 14:33N 37°32' W 010°06'1312.5
2015-Jul-23 13:33N 37°44' W 010°04'1312.9
2015-Jul-23 12:34N 37°57' W 010°03'1312.6
2015-Jul-23 11:33N 38°10' W 010°02'1312.6
2015-Jul-23 10:33N 38°22' W 010°06'1312.6
2015-Jul-23 09:33N 38°34' W 010°10'1212.5
2015-Jul-23 08:33N 38°47' W 010°12'1312.6
2015-Jul-23 07:33N 38°59' W 010°09'1212.2
2015-Jul-23 06:33N 39°11' W 010°05'1312.9
2015-Jul-23 05:31N 39°24' W 009°60'1313.0
2015-Jul-23 04:33N 39°36' W 009°55'  
2015-Jul-20 02:33N 39°06' W 009°55'1212.2
2015-Jul-20 01:33N 38°54' W 009°57'1212.3
2015-Jul-20 00:33N 38°41' W 009°56'  

Dump ship's entire track history